sensor_id;sensor_type;location;lat;lon;timestamp;P1;durP1;ratioP1;P2;durP2;ratioP2
47760;SDS011;33524;55.434;38.520;2022-08-21T20:05:00;9.90;;;6.97;;
47760;SDS011;33524;55.434;38.520;2022-08-21T20:07:28;8.80;;;7.10;;
47760;SDS011;33524;55.434;38.520;2022-08-21T20:09:57;14.95;;;7.05;;
47760;SDS011;33524;55.434;38.520;2022-08-21T20:12:25;11.88;;;6.97;;
47760;SDS011;33524;55.434;38.520;2022-08-21T20:14:54;12.18;;;7.87;;
47760;SDS011;33524;55.434;38.520;2022-08-21T20:17:23;9.75;;;6.50;;
47760;SDS011;33524;55.434;38.520;2022-08-21T20:19:51;10.75;;;6.60;;
47760;SDS011;33524;55.434;38.520;2022-08-21T20:22:39;9.82;;;6.60;;
47760;SDS011;33524;55.434;38.520;2022-08-21T20:25:08;10.80;;;6.65;;
47760;SDS011;33524;55.434;38.520;2022-08-21T20:27:36;10.15;;;6.70;;
47760;SDS011;33524;55.434;38.520;2022-08-21T20:30:07;14.55;;;6.53;;
47760;SDS011;33524;55.434;38.520;2022-08-21T20:32:36;9.20;;;5.75;;
47760;SDS011;33524;55.434;38.520;2022-08-21T20:35:04;19.73;;;6.12;;
47760;SDS011;33524;55.434;38.520;2022-08-21T20:37:53;7.68;;;6.03;;
47760;SDS011;33524;55.434;38.520;2022-08-21T20:40:41;8.55;;;5.95;;
47760;SDS011;33524;55.434;38.520;2022-08-21T20:43:11;12.52;;;7.53;;
47760;SDS011;33524;55.434;38.520;2022-08-21T20:45:41;11.90;;;7.60;;
47760;SDS011;33524;55.434;38.520;2022-08-21T20:48:11;13.15;;;8.65;;
47760;SDS011;33524;55.434;38.520;2022-08-21T20:50:51;18.85;;;12.68;;
47760;SDS011;33524;55.434;38.520;2022-08-21T20:56:16;26.67;;;17.23;;
47760;SDS011;33524;55.434;38.520;2022-08-21T20:59:13;41.25;;;26.83;;
47760;SDS011;33524;55.434;38.520;2022-08-21T21:01:49;39.60;;;27.30;;
47760;SDS011;33524;55.434;38.520;2022-08-21T21:04:26;52.95;;;29.48;;
47760;SDS011;33524;55.434;38.520;2022-08-21T21:07:11;60.05;;;36.78;;
47760;SDS011;33524;55.434;38.520;2022-08-21T21:09:44;64.82;;;38.83;;
47760;SDS011;33524;55.434;38.520;2022-08-21T21:12:25;58.25;;;38.08;;
47760;SDS011;33524;55.434;38.520;2022-08-21T21:14:57;60.53;;;37.83;;
47760;SDS011;33524;55.434;38.520;2022-08-21T21:17:58;72.82;;;42.13;;
47760;SDS011;33524;55.434;38.520;2022-08-21T21:20:43;77.05;;;44.13;;
47760;SDS011;33524;55.434;38.520;2022-08-21T21:23:55;64.28;;;41.08;;
47760;SDS011;33524;55.434;38.520;2022-08-21T21:26:30;74.45;;;46.13;;
47760;SDS011;33524;55.434;38.520;2022-08-21T21:32:07;81.03;;;47.37;;
47760;SDS011;33524;55.434;38.520;2022-08-21T21:34:44;74.25;;;47.00;;
47760;SDS011;33524;55.434;38.520;2022-08-21T21:37:27;80.82;;;49.65;;
47760;SDS011;33524;55.434;38.520;2022-08-21T21:40:25;83.30;;;49.90;;
47760;SDS011;33524;55.434;38.520;2022-08-21T21:45:36;84.35;;;50.90;;
47760;SDS011;33524;55.434;38.520;2022-08-21T21:51:13;95.35;;;55.72;;
47760;SDS011;33524;55.434;38.520;2022-08-21T22:00:14;87.60;;;54.70;;
47760;SDS011;33524;55.434;38.520;2022-08-21T22:02:50;86.72;;;55.10;;
47760;SDS011;33524;55.434;38.520;2022-08-21T22:05:33;87.28;;;54.97;;
47760;SDS011;33524;55.434;38.520;2022-08-21T22:08:13;78.87;;;50.35;;
47760;SDS011;33524;55.434;38.520;2022-08-21T22:10:59;82.78;;;54.10;;
47760;SDS011;33524;55.434;38.520;2022-08-21T22:16:48;88.28;;;54.35;;
47760;SDS011;33524;55.434;38.520;2022-08-21T22:21:52;87.05;;;56.35;;
47760;SDS011;33524;55.434;38.520;2022-08-21T22:24:28;89.03;;;56.50;;
47760;SDS011;33524;55.434;38.520;2022-08-21T22:27:02;90.18;;;57.92;;
47760;SDS011;33524;55.434;38.520;2022-08-21T22:32:10;91.05;;;54.92;;
47760;SDS011;33524;55.434;38.520;2022-08-21T22:34:40;100.87;;;59.33;;
47760;SDS011;33524;55.434;38.520;2022-08-21T22:37:09;92.40;;;59.00;;
47760;SDS011;33524;55.434;38.520;2022-08-21T22:39:39;94.45;;;56.83;;
47760;SDS011;33524;55.434;38.520;2022-08-21T22:42:28;105.28;;;64.05;;
47760;SDS011;33524;55.434;38.520;2022-08-21T22:44:59;97.43;;;60.85;;
47760;SDS011;33524;55.434;38.520;2022-08-21T22:47:40;109.20;;;60.03;;
47760;SDS011;33524;55.434;38.520;2022-08-21T22:52:54;97.78;;;61.20;;
47760;SDS011;33524;55.434;38.520;2022-08-21T22:55:32;93.35;;;59.38;;
47760;SDS011;33524;55.434;38.520;2022-08-21T22:58:22;94.93;;;61.78;;
47760;SDS011;33524;55.434;38.520;2022-08-21T23:00:55;96.90;;;62.20;;
47760;SDS011;33524;55.434;38.520;2022-08-21T23:03:30;107.70;;;64.65;;
47760;SDS011;33524;55.434;38.520;2022-08-21T23:06:21;102.00;;;62.33;;
47760;SDS011;33524;55.434;38.520;2022-08-21T23:09:04;100.18;;;60.85;;
47760;SDS011;33524;55.434;38.520;2022-08-21T23:11:43;93.50;;;59.97;;
47760;SDS011;33524;55.434;38.520;2022-08-21T23:14:32;94.30;;;61.78;;
47760;SDS011;33524;55.434;38.520;2022-08-21T23:31:05;95.18;;;61.67;;
47760;SDS011;33524;55.434;38.520;2022-08-21T23:36:58;90.38;;;58.53;;
47760;SDS011;33524;55.434;38.520;2022-08-21T23:42:48;93.32;;;57.30;;
47760;SDS011;33524;55.434;38.520;2022-08-21T23:45:53;82.47;;;52.50;;
47760;SDS011;33524;55.434;38.520;2022-08-21T23:48:49;99.40;;;59.13;;
47760;SDS011;33524;55.434;38.520;2022-08-21T23:54:56;90.55;;;59.88;;
